Time;durP1;ratioP1;P1;durP2;ratioP2;P2;SDS_P1;SDS_P2;PMS_P1;PMS_P2;Temp;Humidity;BMP_temperature;BMP_pressure;BME280_temperature;BME280_humidity;BME280_pressure;Samples;Min_cycle;Max_cycle;Signal;HPM_P1;HPM_P2
2022/01/31 00:02:10;;;;;;;70.43;7.60;;;3.50;99.90;;;;;;5035071;28;20056;-74
2022/01/31 00:04:35;;;;;;;93.25;9.05;;;3.50;99.90;;;;;;5035287;28;20037;-74
2022/01/31 00:07:02;;;;;;;87.90;8.85;;;3.50;99.90;;;;;;5034908;28;20221;-74
2022/01/31 00:09:27;;;;;;;68.88;8.68;;;3.40;99.90;;;;;;5035004;28;20036;-74
2022/01/31 00:11:58;;;;;;;52.67;7.38;;;3.50;99.90;;;;;;5034867;28;20025;-73
2022/01/31 00:14:34;;;;;;;59.38;8.68;;;3.50;99.90;;;;;;5035133;28;20021;-72
2022/01/31 00:17:00;;;;;;;64.78;8.27;;;3.60;99.90;;;;;;5035086;28;20022;-72
2022/01/31 00:19:26;;;;;;;60.55;8.05;;;3.60;99.90;;;;;;5034884;28;20029;-73
2022/01/31 00:21:52;;;;;;;70.00;8.05;;;3.60;99.90;;;;;;5034672;28;20107;-72
2022/01/31 00:24:17;;;;;;;66.45;9.68;;;3.60;99.90;;;;;;5034648;28;20026;-72
2022/01/31 00:26:43;;;;;;;65.00;9.13;;;3.60;99.90;;;;;;5034512;28;20515;-72
2022/01/31 00:29:08;;;;;;;76.45;7.57;;;3.60;99.90;;;;;;5016994;28;20018;-72
2022/01/31 00:31:34;;;;;;;51.17;7.78;;;3.70;99.90;;;;;;5034486;28;20108;-72
2022/01/31 00:33:59;;;;;;;81.25;10.25;;;3.70;99.90;;;;;;5034699;28;20462;-72
2022/01/31 00:36:25;;;;;;;63.80;9.02;;;3.70;99.90;;;;;;5034388;28;20048;-72
2022/01/31 00:38:51;;;;;;;65.13;8.88;;;3.70;99.90;;;;;;5034284;28;20516;-72
2022/01/31 00:41:16;;;;;;;70.68;10.13;;;3.70;99.90;;;;;;5034568;28;20436;-72
2022/01/31 00:43:44;;;;;;;68.80;10.65;;;3.70;99.90;;;;;;5034289;28;20100;-72
2022/01/31 00:46:12;;;;;;;86.30;10.73;;;3.70;99.90;;;;;;5034147;28;20109;-72
2022/01/31 00:48:44;;;;;;;75.25;10.32;;;3.70;99.90;;;;;;5034204;28;20044;-72
2022/01/31 00:51:10;;;;;;;66.18;9.07;;;3.60;99.90;;;;;;5034163;28;20067;-72
2022/01/31 00:53:36;;;;;;;62.28;9.55;;;3.60;99.90;;;;;;5034357;28;20026;-72
2022/01/31 00:56:02;;;;;;;68.75;9.75;;;3.60;99.90;;;;;;5016598;28;20036;-73
2022/01/31 00:58:28;;;;;;;71.60;10.00;;;3.60;99.90;;;;;;5034423;28;20037;-73
2022/01/31 01:00:54;;;;;;;74.05;10.23;;;3.60;99.90;;;;;;5033957;28;20481;-73
2022/01/31 01:03:19;;;;;;;84.72;10.10;;;3.60;99.90;;;;;;5033044;28;20144;-73
2022/01/31 01:05:45;;;;;;;81.72;11.40;;;3.60;99.90;;;;;;5033763;28;20474;-73
2022/01/31 01:08:10;;;;;;;75.15;10.60;;;3.60;99.90;;;;;;5034264;28;20466;-73
2022/01/31 01:10:36;;;;;;;85.80;10.93;;;3.60;99.90;;;;;;5033785;28;20018;-73
2022/01/31 01:13:02;;;;;;;79.35;10.10;;;3.50;99.90;;;;;;5033767;28;20043;-73
2022/01/31 01:15:27;;;;;;;95.63;11.40;;;3.50;99.90;;;;;;5033700;28;20532;-72
2022/01/31 01:17:53;;;;;;;80.95;10.68;;;3.60;99.90;;;;;;5033936;28;20061;-72
2022/01/31 01:20:19;;;;;;;88.85;11.20;;;3.50;99.90;;;;;;5033556;28;20026;-72
2022/01/31 01:22:45;;;;;;;105.18;11.18;;;3.50;99.90;;;;;;5033611;28;20515;-72
2022/01/31 01:25:12;;;;;;;94.60;9.70;;;3.50;99.90;;;;;;5033829;28;20021;-72
2022/01/31 01:27:37;;;;;;;86.85;9.77;;;3.50;99.90;;;;;;5034077;28;20140;-72
2022/01/31 01:30:05;;;;;;;83.55;10.15;;;3.50;99.90;;;;;;5015758;28;20461;-73
2022/01/31 01:32:36;;;;;;;56.95;8.82;;;3.50;99.90;;;;;;5034655;28;20041;-72
2022/01/31 01:35:05;;;;;;;52.30;8.95;;;3.50;99.90;;;;;;5036224;28;20021;-73
2022/01/31 01:37:31;;;;;;;64.13;7.65;;;3.50;99.90;;;;;;5034007;28;20021;-73
2022/01/31 01:39:57;;;;;;;59.95;7.50;;;3.30;99.90;;;;;;5033568;28;20064;-73
2022/01/31 01:42:23;;;;;;;63.53;8.70;;;3.30;99.90;;;;;;5033408;28;20053;-76
2022/01/31 01:44:53;;;;;;;81.45;9.68;;;3.30;99.90;;;;;;5033363;28;20022;-76
2022/01/31 01:47:21;;;;;;;60.60;8.40;;;3.20;99.90;;;;;;5033576;28;20021;-76
2022/01/31 01:49:48;;;;;;;47.28;8.02;;;3.20;99.90;;;;;;5033095;28;20030;-76
2022/01/31 01:52:16;;;;;;;75.85;8.20;;;3.20;99.90;;;;;;5033264;28;20028;-76
2022/01/31 01:54:42;;;;;;;58.85;7.28;;;3.10;99.90;;;;;;5015573;28;20045;-76
2022/01/31 01:57:07;;;;;;;68.13;7.43;;;3.00;99.90;;;;;;5033232;28;20130;-76
2022/01/31 01:59:35;;;;;;;64.65;7.40;;;3.00;99.90;;;;;;5033121;28;20025;-76
2022/01/31 02:02:03;;;;;;;55.30;6.30;;;2.90;99.90;;;;;;5033453;28;20151;-76
2022/01/31 02:04:28;;;;;;;40.22;6.30;;;2.90;99.90;;;;;;5033699;28;20461;-76
2022/01/31 02:06:54;;;;;;;46.63;6.28;;;2.80;99.90;;;;;;5033154;28;20022;-76
2022/01/31 02:09:25;;;;;;;44.20;5.22;;;2.80;99.90;;;;;;5033345;28;20017;-76
2022/01/31 02:11:54;;;;;;;43.65;5.30;;;2.70;99.90;;;;;;5015448;28;20032;-75
2022/01/31 02:14:20;;;;;;;49.22;8.18;;;2.70;99.90;;;;;;5015731;28;20429;-75
2022/01/31 02:16:49;;;;;;;37.22;5.28;;;2.70;99.90;;;;;;5037046;28;20527;-75
2022/01/31 02:19:16;;;;;;;56.03;7.45;;;2.70;99.90;;;;;;5036912;28;20433;-75
2022/01/31 02:21:43;;;;;;;48.40;6.20;;;2.70;99.90;;;;;;5037196;28;20128;-75
2022/01/31 02:24:09;;;;;;;68.65;6.80;;;2.70;99.90;;;;;;5037030;28;20432;-75
2022/01/31 02:26:34;;;;;;;54.40;7.72;;;2.60;99.90;;;;;;5036775;28;20029;-75
2022/01/31 02:29:00;;;;;;;57.45;6.63;;;2.60;99.90;;;;;;5036773;28;20076;-75
2022/01/31 02:31:25;;;;;;;59.28;7.00;;;2.70;99.90;;;;;;5036733;28;20017;-75
2022/01/31 02:33:51;;;;;;;53.78;9.25;;;2.70;99.90;;;;;;5036714;28;20030;-75
2022/01/31 02:36:18;;;;;;;60.20;6.85;;;2.70;99.90;;;;;;5036973;28;20061;-75
2022/01/31 02:38:43;;;;;;;54.00;7.15;;;2.70;99.90;;;;;;5036585;28;20033;-75
2022/01/31 02:41:09;;;;;;;55.22;8.93;;;2.60;99.90;;;;;;5036938;28;20457;-75
2022/01/31 02:43:35;;;;;;;48.10;6.80;;;2.60;99.90;;;;;;5036804;28;20021;-75
2022/01/31 02:46:01;;;;;;;55.13;5.90;;;2.60;99.90;;;;;;5036975;28;20025;-75
2022/01/31 02:48:33;;;;;;;58.15;6.15;;;2.60;99.90;;;;;;5036686;28;20056;-75
2022/01/31 02:50:59;;;;;;;86.30;6.25;;;2.60;99.90;;;;;;5036479;28;20033;-73
2022/01/31 02:53:27;;;;;;;49.78;6.05;;;2.50;99.90;;;;;;5036923;28;20029;-73
2022/01/31 02:55:58;;;;;;;66.25;6.80;;;2.50;99.90;;;;;;5036310;28;20096;-73
2022/01/31 02:58:25;;;;;;;61.05;7.47;;;2.50;99.90;;;;;;5036388;28;20037;-74
2022/01/31 03:00:51;;;;;;;69.53;8.82;;;2.50;99.90;;;;;;5036226;28;20029;-73
2022/01/31 03:03:17;;;;;;;48.97;5.88;;;2.50;99.90;;;;;;5036176;28;20040;-73
2022/01/31 03:05:43;;;;;;;67.43;7.80;;;2.50;99.90;;;;;;5036044;28;20452;-73
2022/01/31 03:08:09;;;;;;;57.85;7.38;;;2.50;99.90;;;;;;5036342;28;20096;-74
2022/01/31 03:10:35;;;;;;;75.47;8.43;;;2.50;99.90;;;;;;5036061;28;20071;-73
2022/01/31 03:13:00;;;;;;;72.38;10.20;;;2.40;99.90;;;;;;5036257;28;20033;-73
2022/01/31 03:15:27;;;;;;;62.95;9.27;;;2.40;99.90;;;;;;5018217;28;20026;-73
2022/01/31 03:17:52;;;;;;;53.72;9.20;;;2.40;99.90;;;;;;5036146;28;20037;-73
2022/01/31 03:20:21;;;;;;;59.80;9.32;;;2.40;99.90;;;;;;5036342;28;20037;-73
2022/01/31 03:22:48;;;;;;;54.75;8.13;;;2.40;99.90;;;;;;5036313;28;20367;-73
2022/01/31 03:25:14;;;;;;;54.45;7.25;;;2.40;99.90;;;;;;5036059;28;20057;-73
2022/01/31 03:27:41;;;;;;;62.70;7.25;;;2.30;99.90;;;;;;5034746;28;20021;-73
2022/01/31 03:30:11;;;;;;;76.95;8.00;;;2.30;99.90;;;;;;5035647;28;20070;-73
2022/01/31 03:32:36;;;;;;;74.43;8.35;;;2.30;99.90;;;;;;5035799;28;20108;-73
2022/01/31 03:35:04;;;;;;;70.00;8.60;;;2.20;99.90;;;;;;5035606;28;20104;-73
2022/01/31 03:37:29;;;;;;;71.20;8.43;;;2.20;99.90;;;;;;5035840;28;20068;-73
2022/01/31 03:39:55;;;;;;;83.15;9.13;;;2.10;99.90;;;;;;5035452;28;20069;-73
2022/01/31 03:42:20;;;;;;;56.00;8.70;;;2.10;99.90;;;;;;5035485;28;20025;-73
2022/01/31 03:44:47;;;;;;;80.65;10.70;;;2.10;99.90;;;;;;5035444;28;20494;-73
2022/01/31 03:47:14;;;;;;;64.28;8.05;;;2.10;99.90;;;;;;5035539;28;20462;-73
2022/01/31 03:49:40;;;;;;;76.15;8.95;;;2.10;99.90;;;;;;5035135;28;20041;-73
2022/01/31 03:52:06;;;;;;;89.13;10.23;;;2.10;99.90;;;;;;5035280;28;20017;-73
2022/01/31 03:54:32;;;;;;;92.18;10.18;;;2.00;99.90;;;;;;5035535;28;20041;-73
2022/01/31 03:56:57;;;;;;;87.05;11.15;;;2.00;99.90;;;;;;5035318;28;20083;-73
2022/01/31 03:59:23;;;;;;;86.72;10.07;;;2.00;99.90;;;;;;5017345;28;20025;-73
2022/01/31 04:01:49;;;;;;;83.45;8.60;;;2.00;99.90;;;;;;5035091;28;20426;-73
2022/01/31 04:04:14;;;;;;;99.55;10.55;;;1.90;99.90;;;;;;5035034;28;20370;-73
2022/01/31 04:06:40;;;;;;;81.20;9.18;;;1.90;99.90;;;;;;5034910;28;20056;-73
2022/01/31 04:09:07;;;;;;;78.00;10.68;;;1.90;99.90;;;;;;5034913;28;20029;-73
2022/01/31 04:11:33;;;;;;;69.50;9.05;;;1.90;99.90;;;;;;5035156;28;20026;-73
2022/01/31 04:13:59;;;;;;;84.38;10.30;;;1.90;99.90;;;;;;5035081;28;20071;-73
2022/01/31 04:16:24;;;;;;;93.93;10.75;;;1.90;99.90;;;;;;5035073;28;20037;-73
2022/01/31 04:18:50;;;;;;;76.50;12.52;;;1.90;99.90;;;;;;5034692;28;20029;-73
2022/01/31 04:21:15;;;;;;;86.03;10.63;;;1.90;99.90;;;;;;5034694;28;20390;-73
2022/01/31 04:23:41;;;;;;;68.85;9.75;;;1.90;99.90;;;;;;5034634;28;20029;-73
2022/01/31 04:26:12;;;;;;;69.80;10.57;;;1.80;99.90;;;;;;5034548;28;20159;-73
2022/01/31 04:29:24;;;;;;;76.13;10.25;;;1.90;99.90;;;;;;5034777;28;20484;-75
2022/01/31 04:31:37;;;;;;;75.75;10.15;;;1.90;99.90;;;;;;5027284;28;20044;-75
2022/01/31 04:34:03;;;;;;;69.07;11.30;;;1.80;99.90;;;;;;5034779;28;20017;-75
2022/01/31 04:36:28;;;;;;;73.40;9.07;;;1.80;99.90;;;;;;5034483;28;20034;-73
2022/01/31 04:38:54;;;;;;;80.60;10.70;;;1.80;99.90;;;;;;5034174;28;20100;-73
2022/01/31 04:41:20;;;;;;;82.40;10.65;;;1.80;99.90;;;;;;5034650;28;20056;-73
2022/01/31 04:43:48;;;;;;;74.63;9.65;;;1.70;99.90;;;;;;5034314;28;20100;-73
2022/01/31 04:46:14;;;;;;;88.32;10.32;;;1.70;99.90;;;;;;5034197;28;20030;-73
2022/01/31 04:48:42;;;;;;;100.03;9.93;;;1.70;99.90;;;;;;5034017;28;20492;-73
2022/01/31 04:51:08;;;;;;;87.32;10.23;;;1.70;99.90;;;;;;5016449;28;20486;-73
2022/01/31 04:53:33;;;;;;;70.93;9.57;;;1.70;99.90;;;;;;5034361;28;20049;-73
2022/01/31 04:55:59;;;;;;;59.60;9.13;;;1.70;99.90;;;;;;5034119;28;20026;-73
2022/01/31 04:58:25;;;;;;;73.82;9.15;;;1.80;99.90;;;;;;5033918;28;20076;-73
2022/01/31 05:00:51;;;;;;;55.45;7.68;;;1.80;99.90;;;;;;5034299;28;20069;-73
2022/01/31 05:03:19;;;;;;;82.60;12.90;;;1.80;99.90;;;;;;5033941;28;20437;-73
2022/01/31 05:05:45;;;;;;;95.18;11.35;;;1.90;99.90;;;;;;5033976;28;20025;-73
2022/01/31 05:08:12;;;;;;;72.30;10.77;;;1.90;99.90;;;;;;5033983;28;20430;-73
2022/01/31 05:10:46;;;;;;;75.88;9.85;;;1.90;99.90;;;;;;5034103;28;20100;-73
2022/01/31 05:13:13;;;;;;;63.28;8.65;;;1.90;99.90;;;;;;5034086;28;20025;-73
2022/01/31 05:15:40;;;;;;;71.32;11.63;;;1.90;99.90;;;;;;5033732;28;20060;-73
2022/01/31 05:18:05;;;;;;;87.45;11.02;;;1.90;99.90;;;;;;5033868;28;20417;-73
2022/01/31 05:20:31;;;;;;;65.97;9.85;;;1.90;99.90;;;;;;5033646;28;20037;-73
2022/01/31 05:22:57;;;;;;;72.53;10.27;;;1.90;99.90;;;;;;5033661;28;20488;-73
2022/01/31 05:25:22;;;;;;;74.85;10.90;;;1.90;99.90;;;;;;5034032;28;20025;-73
2022/01/31 05:27:48;;;;;;;80.55;10.23;;;1.90;99.90;;;;;;5033481;28;20056;-73
2022/01/31 05:30:16;;;;;;;77.97;11.63;;;1.90;99.90;;;;;;5033461;28;20080;-73
2022/01/31 05:32:43;;;;;;;69.10;9.98;;;1.90;99.90;;;;;;5033573;28;20017;-73
2022/01/31 05:35:08;;;;;;;98.47;10.75;;;1.90;99.90;;;;;;5033490;28;20021;-73
2022/01/31 05:37:35;;;;;;;64.95;10.43;;;1.90;99.90;;;;;;5033487;28;20584;-76
2022/01/31 05:40:01;;;;;;;76.18;11.52;;;1.90;99.90;;;;;;5033354;28;20021;-76
2022/01/31 05:42:27;;;;;;;57.30;9.32;;;1.90;99.90;;;;;;5033398;28;20021;-76
2022/01/31 05:44:52;;;;;;;73.05;9.40;;;1.90;99.90;;;;;;5033312;28;20026;-76
2022/01/31 05:47:18;;;;;;;81.63;11.10;;;1.90;99.90;;;;;;5033240;28;20520;-76
2022/01/31 05:49:44;;;;;;;61.33;10.90;;;1.80;99.90;;;;;;5032512;28;20401;-76
2022/01/31 05:52:09;;;;;;;87.10;11.18;;;1.90;99.90;;;;;;5033262;28;20029;-76
2022/01/31 05:54:37;;;;;;;71.35;10.85;;;1.90;99.90;;;;;;5033234;28;20486;-76
2022/01/31 05:57:04;;;;;;;74.13;11.23;;;1.80;99.90;;;;;;5033237;28;20055;-76
2022/01/31 05:59:30;;;;;;;79.80;10.98;;;1.80;99.90;;;;;;5033394;28;20026;-76
2022/01/31 06:01:57;;;;;;;94.22;14.68;;;1.90;99.90;;;;;;5015495;28;20026;-76
2022/01/31 06:04:26;;;;;;;62.00;11.05;;;1.80;99.90;;;;;;5033456;28;20026;-76
2022/01/31 06:06:51;;;;;;;61.45;9.48;;;1.80;99.90;;;;;;5033050;28;20021;-76
2022/01/31 06:09:17;;;;;;;83.55;12.75;;;1.90;99.90;;;;;;5033322;28;20036;-76
2022/01/31 06:11:45;;;;;;;80.97;12.30;;;1.80;99.90;;;;;;5033102;28;20021;-76
2022/01/31 06:14:10;;;;;;;50.88;10.45;;;1.80;99.90;;;;;;5033098;28;20018;-76
2022/01/31 06:16:36;;;;;;;70.20;10.43;;;1.90;99.90;;;;;;5033302;28;20076;-76
2022/01/31 06:19:02;;;;;;;79.03;11.32;;;1.80;99.90;;;;;;5033507;28;20044;-76
2022/01/31 06:21:28;;;;;;;62.08;11.48;;;1.80;99.90;;;;;;5033021;28;20393;-76
2022/01/31 06:23:54;;;;;;;78.85;12.32;;;1.80;99.90;;;;;;5033007;28;20083;-76
2022/01/31 06:26:21;;;;;;;77.53;13.35;;;1.80;99.90;;;;;;5032960;28;20026;-73
2022/01/31 06:28:48;;;;;;;80.35;12.32;;;1.90;99.90;;;;;;5033114;28;20400;-73
2022/01/31 06:31:14;;;;;;;62.25;12.20;;;1.90;99.90;;;;;;5032949;28;20164;-73
2022/01/31 06:33:39;;;;;;;57.95;10.45;;;1.80;99.90;;;;;;5032955;28;20509;-73
2022/01/31 06:36:05;;;;;;;82.00;12.20;;;1.90;99.90;;;;;;5032854;28;20030;-73
2022/01/31 06:38:31;;;;;;;89.82;14.13;;;1.80;99.90;;;;;;5032826;28;20099;-73
2022/01/31 06:40:57;;;;;;;65.22;12.32;;;1.80;99.90;;;;;;5033162;28;20104;-73
2022/01/31 06:43:23;;;;;;;66.32;12.32;;;1.80;99.90;;;;;;5033045;28;20543;-73
2022/01/31 06:45:49;;;;;;;75.13;13.65;;;1.80;99.90;;;;;;5014978;28;20031;-73
2022/01/31 06:48:14;;;;;;;66.00;13.50;;;1.80;99.90;;;;;;5032602;28;20022;-73
2022/01/31 06:50:40;;;;;;;76.40;14.65;;;1.80;99.90;;;;;;5032764;28;20025;-76
2022/01/31 06:53:06;;;;;;;65.95;12.77;;;1.80;99.90;;;;;;5032744;28;20029;-76
2022/01/31 06:55:34;;;;;;;73.20;11.45;;;1.80;99.90;;;;;;5032701;28;20057;-76
2022/01/31 06:58:02;;;;;;;74.80;12.20;;;1.80;99.90;;;;;;5032943;28;20026;-76
2022/01/31 07:00:28;;;;;;;74.80;12.55;;;1.80;99.90;;;;;;5032584;28;20056;-76
2022/01/31 07:02:54;;;;;;;81.93;11.98;;;1.90;99.90;;;;;;5035598;28;20041;-76
2022/01/31 07:05:21;;;;;;;52.05;10.35;;;1.90;99.90;;;;;;5036189;28;20071;-76
2022/01/31 07:07:47;;;;;;;71.03;13.50;;;1.80;99.90;;;;;;5036023;28;20535;-76
2022/01/31 07:10:13;;;;;;;80.45;13.82;;;1.80;99.90;;;;;;5035995;28;20041;-76
2022/01/31 07:12:41;;;;;;;58.10;12.52;;;1.80;99.90;;;;;;5036065;28;20056;-76
2022/01/31 07:15:09;;;;;;;92.68;15.63;;;1.80;99.90;;;;;;5036078;28;20022;-76
2022/01/31 07:17:36;;;;;;;80.03;12.90;;;1.90;99.90;;;;;;5036251;28;20064;-76
2022/01/31 07:20:09;;;;;;;63.83;11.52;;;1.90;99.90;;;;;;5035934;28;20504;-76
2022/01/31 07:22:38;;;;;;;72.85;12.45;;;1.90;99.90;;;;;;5019111;28;20033;-76
2022/01/31 07:25:08;;;;;;;82.95;13.02;;;1.90;99.90;;;;;;5036128;28;20485;-76
2022/01/31 07:27:35;;;;;;;64.53;12.73;;;1.90;99.90;;;;;;5017965;28;20067;-76
2022/01/31 07:30:01;;;;;;;93.32;12.95;;;1.90;99.90;;;;;;5035717;28;20044;-76
2022/01/31 07:32:28;;;;;;;69.63;11.80;;;1.90;99.90;;;;;;5035751;28;20021;-76
2022/01/31 07:34:55;;;;;;;57.17;13.20;;;1.90;99.90;;;;;;5035650;28;20079;-76
2022/01/31 07:37:25;;;;;;;60.78;11.00;;;1.90;99.90;;;;;;5035876;28;20428;-76
2022/01/31 07:39:51;;;;;;;75.13;13.90;;;1.90;99.90;;;;;;5035500;28;20026;-76
2022/01/31 07:42:17;;;;;;;53.97;12.90;;;1.90;99.90;;;;;;5035569;28;20025;-76
2022/01/31 07:44:43;;;;;;;79.10;13.05;;;1.90;99.90;;;;;;5035761;28;20033;-76
2022/01/31 07:47:09;;;;;;;67.82;12.75;;;1.90;99.90;;;;;;5035878;28;20025;-76
2022/01/31 07:49:35;;;;;;;67.63;13.43;;;1.90;99.90;;;;;;5035163;28;20026;-76
2022/01/31 07:52:01;;;;;;;60.10;13.68;;;1.90;99.90;;;;;;5035340;28;20025;-76
2022/01/31 07:54:27;;;;;;;79.05;13.65;;;1.80;99.90;;;;;;5035305;28;20021;-76
2022/01/31 07:56:53;;;;;;;77.63;15.77;;;1.90;99.90;;;;;;5035191;28;20029;-76
2022/01/31 07:59:19;;;;;;;79.70;16.10;;;1.90;99.90;;;;;;5035372;28;20429;-76
2022/01/31 08:01:45;;;;;;;64.43;13.95;;;1.90;99.90;;;;;;5035134;28;20025;-73
2022/01/31 08:04:11;;;;;;;78.65;14.02;;;1.90;99.90;;;;;;5035080;28;20075;-73
2022/01/31 08:06:37;;;;;;;64.38;13.63;;;1.90;99.90;;;;;;5035257;28;20029;-73
2022/01/31 08:09:04;;;;;;;71.13;14.85;;;1.90;99.90;;;;;;5035002;28;20228;-72
2022/01/31 08:11:32;;;;;;;70.50;13.68;;;1.90;99.90;;;;;;5034969;28;20017;-72
2022/01/31 08:14:01;;;;;;;90.82;16.27;;;1.90;99.90;;;;;;5034720;28;20159;-72
2022/01/31 08:16:28;;;;;;;71.80;13.10;;;1.90;99.90;;;;;;5035131;28;20105;-72
2022/01/31 08:18:54;;;;;;;79.47;16.00;;;1.80;99.90;;;;;;5034708;28;20065;-73
2022/01/31 08:21:25;;;;;;;60.55;13.32;;;1.90;99.90;;;;;;5034756;28;20084;-73
2022/01/31 08:23:52;;;;;;;52.80;12.93;;;1.90;99.90;;;;;;5035280;28;20470;-74
2022/01/31 08:26:19;;;;;;;95.28;15.57;;;1.90;99.90;;;;;;5034859;28;20083;-72
2022/01/31 08:28:53;;;;;;;65.05;15.50;;;1.90;99.90;;;;;;5035170;28;20049;-72
2022/01/31 08:31:28;;;;;;;77.30;14.73;;;1.90;99.90;;;;;;5034903;28;20463;-72
2022/01/31 08:36:24;;;;;;;80.25;14.85;;;1.90;99.90;;;;;;5034417;28;20049;-72
2022/01/31 08:38:50;;;;;;;67.93;14.55;;;1.90;99.90;;;;;;5034362;28;20049;-73
2022/01/31 08:41:17;;;;;;;70.90;15.02;;;2.00;99.90;;;;;;5034652;28;20104;-72
2022/01/31 08:43:44;;;;;;;87.18;17.13;;;2.00;99.90;;;;;;5034314;28;20079;-73
2022/01/31 08:46:12;;;;;;;69.53;16.60;;;2.10;99.90;;;;;;5035021;28;20419;-72
2022/01/31 08:48:39;;;;;;;90.32;17.70;;;2.20;99.90;;;;;;5090861;22;20396;-70
2022/01/31 08:51:06;;;;;;;60.60;15.32;;;2.20;99.90;;;;;;5053641;28;20080;-70
2022/01/31 08:53:33;;;;;;;73.38;16.48;;;2.40;99.90;;;;;;5054095;28;20427;-70
2022/01/31 08:56:01;;;;;;;65.20;18.70;;;2.50;99.90;;;;;;5054332;28;20021;-70
2022/01/31 08:58:27;;;;;;;68.40;14.90;;;2.60;99.90;;;;;;5054299;28;20026;-70
2022/01/31 09:01:01;;;;;;;88.35;19.08;;;2.70;99.90;;;;;;5053979;28;20029;-70
2022/01/31 09:04:00;;;;;;;74.45;19.13;;;2.80;99.90;;;;;;5054547;28;20108;-70
2022/01/31 09:06:27;;;;;;;70.57;19.00;;;2.90;99.90;;;;;;5053810;28;20051;-70
2022/01/31 09:08:53;;;;;;;61.83;18.15;;;3.00;99.90;;;;;;5053773;28;20064;-70
2022/01/31 09:11:19;;;;;;;69.00;17.08;;;3.10;99.90;;;;;;5053838;28;20048;-70
2022/01/31 09:13:44;;;;;;;68.32;19.85;;;3.10;99.90;;;;;;5053770;28;20021;-70
2022/01/31 09:16:10;;;;;;;68.97;18.55;;;3.00;99.90;;;;;;5053984;28;20033;-70
2022/01/31 09:18:36;;;;;;;75.88;18.50;;;3.00;99.90;;;;;;5053596;28;20428;-70
2022/01/31 09:21:03;;;;;;;82.70;20.23;;;3.00;99.90;;;;;;5053624;28;20036;-70
2022/01/31 09:23:29;;;;;;;70.18;20.33;;;3.00;99.90;;;;;;5053416;28;20053;-70
2022/01/31 09:25:56;;;;;;;65.15;19.70;;;3.00;99.90;;;;;;5052935;28;20511;-70
2022/01/31 09:28:22;;;;;;;82.97;19.63;;;3.00;99.90;;;;;;5053518;28;20024;-70
2022/01/31 09:30:49;;;;;;;84.18;21.48;;;3.00;99.90;;;;;;5053418;28;20021;-70
2022/01/31 09:33:15;;;;;;;80.70;22.52;;;3.00;99.90;;;;;;5053714;28;20028;-70
2022/01/31 09:35:42;;;;;;;94.15;23.33;;;3.10;99.90;;;;;;5053436;28;20025;-70
2022/01/31 09:38:11;;;;;;;97.32;24.73;;;3.10;99.90;;;;;;5053336;28;20389;-70
2022/01/31 09:40:36;;;;;;;98.63;25.92;;;3.30;99.90;;;;;;5053588;28;20162;-70
2022/01/31 09:43:29;;;;;;;83.85;24.23;;;3.40;99.90;;;;;;5053342;28;20473;-70
2022/01/31 09:46:18;;;;;;;90.90;27.10;;;3.60;99.90;;;;;;5047676;28;20174;-70
2022/01/31 09:48:44;;;;;;;97.95;27.38;;;3.70;99.90;;;;;;5053094;28;20070;-70
2022/01/31 09:51:13;;;;;;;68.20;25.25;;;3.70;99.90;;;;;;5053285;28;20028;-70
2022/01/31 09:53:40;;;;;;;74.63;25.80;;;3.80;99.90;;;;;;5053188;28;20074;-70
2022/01/31 09:56:09;;;;;;;71.95;25.38;;;3.80;99.90;;;;;;5053432;28;20025;-70
2022/01/31 09:58:36;;;;;;;66.90;23.83;;;3.80;99.90;;;;;;5053391;28;20025;-70
2022/01/31 10:01:03;;;;;;;65.93;24.90;;;3.90;99.90;;;;;;5053155;28;20025;-70
2022/01/31 10:03:28;;;;;;;78.43;25.83;;;4.00;99.90;;;;;;5053122;28;20028;-71
2022/01/31 10:05:54;;;;;;;80.53;24.75;;;4.00;99.90;;;;;;5053025;28;20096;-71
2022/01/31 10:08:20;;;;;;;78.45;27.27;;;4.10;99.90;;;;;;5053087;28;20032;-71
2022/01/31 10:10:48;;;;;;;76.65;25.08;;;4.10;99.90;;;;;;5053007;28;20362;-71
2022/01/31 10:16:30;;;;;;;62.17;23.60;;;4.10;99.90;;;;;;5053071;28;20079;-71
2022/01/31 10:19:10;;;;;;;70.70;25.27;;;4.10;99.90;;;;;;5052993;28;20057;-70
2022/01/31 10:21:56;;;;;;;82.13;26.80;;;4.10;99.90;;;;;;5052951;28;20028;-70
2022/01/31 10:24:24;;;;;;;63.67;26.10;;;4.10;99.90;;;;;;5052923;28;20426;-70
2022/01/31 10:26:50;;;;;;;56.13;23.02;;;4.10;99.90;;;;;;5052859;28;20029;-70
2022/01/31 10:29:17;;;;;;;56.38;23.45;;;4.10;99.90;;;;;;5052804;28;20096;-70
2022/01/31 10:32:17;;;;;;;66.18;24.88;;;4.10;99.90;;;;;;5052808;28;20087;-70
2022/01/31 10:34:52;;;;;;;59.85;23.75;;;4.10;99.90;;;;;;5031567;28;20072;-71
2022/01/31 10:37:21;;;;;;;62.03;24.30;;;4.10;99.90;;;;;;5056702;28;20524;-71
2022/01/31 10:50:47;;;;;;;;;;;4.10;99.90;;;;;;5056800;28;20408;-71
2022/01/31 10:53:13;;;;;;;62.60;22.27;;;4.00;99.90;;;;;;5056746;28;19912;-71
2022/01/31 10:55:39;;;;;;;66.88;23.85;;;3.90;99.90;;;;;;5056365;28;20388;-71
2022/01/31 10:58:07;;;;;;;57.00;22.17;;;3.80;99.90;;;;;;5056878;28;20053;-71
2022/01/31 11:00:40;;;;;;;50.30;24.02;;;3.90;99.90;;;;;;5056206;28;20401;-71
2022/01/31 11:03:26;;;;;;;58.60;23.10;;;4.10;99.90;;;;;;5056410;28;20116;-71
2022/01/31 11:05:51;;;;;;;51.75;22.45;;;4.20;99.90;;;;;;5056061;28;20021;-71
2022/01/31 11:08:17;;;;;;;53.67;21.58;;;4.10;99.90;;;;;;5056106;28;20381;-71
2022/01/31 11:10:43;;;;;;;60.13;22.42;;;4.10;99.90;;;;;;5055977;28;20083;-71
2022/01/31 11:13:09;;;;;;;72.70;23.00;;;4.10;99.90;;;;;;5056030;28;20025;-71
2022/01/31 11:15:36;;;;;;;63.13;23.15;;;4.10;99.90;;;;;;5055994;28;20020;-71
2022/01/31 11:18:03;;;;;;;64.50;22.88;;;4.20;99.90;;;;;;5056208;28;20424;-71
2022/01/31 11:20:29;;;;;;;57.85;22.90;;;4.20;99.90;;;;;;5055895;28;20025;-71
2022/01/31 11:22:58;;;;;;;58.15;22.90;;;4.30;99.90;;;;;;5055863;28;20033;-71
2022/01/31 11:25:28;;;;;;;62.70;23.55;;;4.30;99.90;;;;;;5056042;28;20021;-71
2022/01/31 11:27:58;;;;;;;51.53;21.08;;;4.30;99.90;;;;;;5055680;28;20102;-72
2022/01/31 11:30:24;;;;;;;53.00;19.73;;;4.20;99.90;;;;;;5056885;28;20400;-72
2022/01/31 11:32:51;;;;;;;57.45;21.70;;;4.10;99.90;;;;;;5055934;28;20111;-72
2022/01/31 11:35:17;;;;;;;52.83;19.77;;;4.10;99.90;;;;;;5055578;28;20025;-71
2022/01/31 11:37:42;;;;;;;51.42;20.70;;;3.90;99.90;;;;;;5055762;28;20088;-71
2022/01/31 11:40:10;;;;;;;61.75;21.30;;;3.90;99.90;;;;;;5055471;28;20577;-71
2022/01/31 11:42:36;;;;;;;53.15;21.17;;;3.80;99.90;;;;;;5056007;28;20021;-71
2022/01/31 11:45:18;;;;;;;73.05;22.38;;;3.80;99.90;;;;;;5055687;28;20381;-71
2022/01/31 11:47:48;;;;;;;65.10;22.45;;;3.80;99.90;;;;;;5054549;28;20029;-71
2022/01/31 11:50:14;;;;;;;56.40;22.15;;;3.70;99.90;;;;;;5055210;28;20073;-71
2022/01/31 11:53:00;;;;;;;65.75;22.55;;;3.70;99.90;;;;;;5055545;28;20053;-71
2022/01/31 11:55:35;;;;;;;58.05;23.13;;;3.60;99.90;;;;;;5055264;28;20108;-71
2022/01/31 11:58:01;;;;;;;61.42;23.02;;;3.60;99.90;;;;;;5055518;28;20031;-70
2022/01/31 12:00:28;;;;;;;50.83;22.15;;;3.50;99.90;;;;;;5055047;28;20491;-70
2022/01/31 12:03:00;;;;;;;46.63;21.08;;;3.60;99.90;;;;;;5055066;28;20021;-70
2022/01/31 12:05:30;;;;;;;63.60;24.15;;;3.60;99.90;;;;;;5055343;28;20037;-70
2022/01/31 12:08:02;;;;;;;65.40;23.90;;;3.60;99.90;;;;;;5054975;28;20029;-70
2022/01/31 12:10:33;;;;;;;54.33;24.42;;;3.70;99.90;;;;;;5054880;28;20389;-70
2022/01/31 12:13:15;;;;;;;62.33;23.90;;;3.80;99.90;;;;;;5055088;28;20100;-70
2022/01/31 12:24:44;;;;;;;69.60;22.70;;;3.70;99.90;;;;;;5055301;28;20036;-70
2022/01/31 12:27:10;;;;;;;61.17;22.35;;;3.80;99.90;;;;;;5054064;28;20083;-70
2022/01/31 12:29:48;;;;;;;48.42;22.08;;;3.80;99.90;;;;;;5054512;28;20029;-70
2022/01/31 12:32:18;;;;;;;55.58;22.90;;;3.80;99.90;;;;;;5055089;28;20056;-70
2022/01/31 12:34:56;;;;;;;53.72;22.25;;;3.80;99.90;;;;;;5054646;28;20053;-70
2022/01/31 12:37:51;;;;;;;62.65;23.85;;;3.70;99.90;;;;;;5054431;28;20473;-70
2022/01/31 12:40:32;;;;;;;54.13;21.58;;;3.70;99.90;;;;;;5054600;28;20025;-70
2022/01/31 12:43:35;;;;;;;50.90;22.00;;;3.70;99.90;;;;;;5054929;28;20457;-71
2022/01/31 12:46:03;;;;;;;60.72;23.17;;;3.70;99.90;;;;;;5054460;28;20075;-71
2022/01/31 12:48:28;;;;;;;50.63;22.27;;;3.80;99.90;;;;;;5054427;28;20021;-71
2022/01/31 12:50:58;;;;;;;47.25;22.85;;;3.90;99.90;;;;;;5054043;28;20036;-70
2022/01/31 12:53:29;;;;;;;55.20;22.42;;;4.00;99.90;;;;;;5054346;28;20029;-70
2022/01/31 12:56:07;;;;;;;42.63;19.48;;;4.00;99.90;;;;;;5054391;28;20031;-70
2022/01/31 12:58:35;;;;;;;45.33;19.60;;;4.00;99.90;;;;;;5054335;28;20025;-70
2022/01/31 13:01:15;;;;;;;48.53;20.90;;;4.00;99.90;;;;;;5053973;28;20017;-70
2022/01/31 13:03:46;;;;;;;51.92;19.13;;;4.10;99.90;;;;;;5053780;28;20060;-70
2022/01/31 13:06:24;;;;;;;45.35;19.73;;;4.30;99.90;;;;;;5053858;28;20052;-70
2022/01/31 13:08:50;;;;;;;45.35;19.00;;;4.50;99.90;;;;;;5053908;28;20021;-70
2022/01/31 13:11:15;;;;;;;45.42;19.58;;;4.60;99.90;;;;;;5053837;28;20500;-70